• Join FlightAware (Why Join?)
  • Login
  • US Flag 
09:24PM EDT


 

Airport Tracker/Info


-or-


 

Live Flight TrackerFlight Track Log ✈ QLK381D ✈ 11-Jun-2013 ✈ YHBA / HVB - YBBN / BNE

Flight Track Log - Related Links

Times and Time Zones

All times are in EDT time to prevent confusion due to time zone crossing. See the QLK381D flight status page for this flight to view local times or setup timezone preferences in your user account.

Time Position Orientation Groundspeed Altitude Reporting Facility
EDT Latitude Longitude Course Direction KTS MPH feet Rate Location/Type
04:25AM -25.3690 152.8378 218° Southwest 11,000  Level Aus ATC (Calculated)
04:27AM -25.4740 152.7477 202° Southwest 243 280 8,800 420 Descending Aus ATC (RADAR)
04:29AM -25.5586 152.7092 202° Southwest 246 283 12,700 2,100 Climbing Aus ATC (RADAR)
04:30AM -25.6636 152.7155 177° South 247 284 15,100 720 Climbing Aus ATC (RADAR)
04:32AM -25.7765 152.7197 178° South 260 299 15,100  Level Aus ATC (RADAR)
04:33AM -25.8779 152.7236 178° South 256 295 15,100  Level Aus ATC (RADAR)
04:35AM -25.9781 152.7275 178° South 254 292 15,100  Level Aus ATC (RADAR)
04:36AM -26.0960 152.7327 178° South 255 293 15,100  Level Aus ATC (RADAR)
04:38AM -26.0842 152.8090 80° East 253 291 15,100  Level Aus ATC (RADAR)
04:40AM -25.9491 152.7972 356° North 241 277 15,100  Level Aus ATC (RADAR)
04:42AM -25.9085 152.7263 302° West 237 273 15,100  Level Aus ATC (RADAR)
04:43AM -26.0199 152.7234 181° South 252 290 15,200  Climbing Aus ATC (RADAR)
04:45AM -26.1311 152.7291 177° South 253 291 15,200  Level Aus ATC (RADAR)
04:46AM -26.2158 152.6702 212° Southwest 242 278 15,200  Level Aus ATC (RADAR)
04:48AM -26.2904 152.6035 219° Southwest 242 278 15,200  Level Aus ATC (RADAR)
04:49AM -26.3958 152.6251 170° South 255 293 15,200  Level Aus ATC (RADAR)
04:51AM -26.5025 152.6681 160° South 257 296 15,200  Level Aus ATC (RADAR)
04:52AM -26.6049 152.7081 161° South 260 299 15,200 -420 Level Aus ATC (RADAR)
04:54AM -26.7003 152.7440 161° South 248 285 14,100 -1,140 Descending Aus ATC (RADAR)
04:55AM -26.7960 152.7904 157° South 271 312 12,000 -1,380 Descending Aus ATC (RADAR)
04:57AM -26.9095 152.8607 151° Southeast 287 330 9,900 -1,020 Descending Aus ATC (RADAR)
04:58AM -27.0303 152.8842 170° South 273 314 8,800 -600 Descending Aus ATC (RADAR)
05:00AM -27.1355 152.8957 174° South 265 305 8,100 -540 Descending Aus ATC (RADAR)
05:01AM -27.2524 152.9098 174° South 266 306 7,300 -540 Descending Aus ATC (RADAR)
05:03AM -27.3702 152.9241 174° South 269 310 6,500 -540 Descending Aus ATC (RADAR)
05:04AM -27.4809 152.9369 174° South 260 299 5,800 -540 Descending Aus ATC (RADAR)
05:06AM -27.5823 152.9486 174° South 229 264 4,900 -720 Descending Aus ATC (RADAR)
05:08AM -27.5692 153.0255 79° East 187 215 3,600 -960 Descending Aus ATC (RADAR)
05:09AM -27.4942 153.0663 26° Northeast 182 209 2,000 -900 Descending Aus ATC (RADAR)
05:11AM -27.4443 153.0949 27° Northeast 133 153 1,000 -720 Descending Aus ATC (RADAR)